Santaquin, UT

9:05 PM MST on December 17, 2014 (GMT -0700)
MesoWest Santaquin UT US FGNet | Change Station
CLOSE
Current Station
Personal Weather Station
Location: Santaquin, UT
Elevation: 4899 ft
Nearby Weather Stations

Elev 4899 ft 39.99 °N, 111.78 °W | Updated 35 minutes ago

Scattered Clouds
Scattered Clouds
34.0 °F
Feels Like 28 °F
N
7.0
Wind Variable Wind from SSW
Gusts 8.0 mph

Today
High -- | Low -- °F
--% Chance of Precip.
Yesterday
High -- | Low -- °F
Precip. -- in
7:43 AM 5:03 PM
Waning Crescent, 17% visible
Pressure 30.03 in
Visibility 15.0 miles
Clouds Scattered Clouds 10000 ft
Windchill 28 °F
Dew Point 26.0 °F
Humidity 72%
Rainfall -999.00 in
Snow Depth Not available.
UV 0 out of 12
Pollen .10 out of 12
Air Quality Not available.
Flu Activity Not available.
METAR KPVU 180251Z 00000KT 15SM SCT100 01/M02 A3003

More Conditions Fewer Conditions

Pressure 30.03 in
Visibility 15.0 miles
Clouds Scattered Clouds 10000 ft
Windchill 28 °F
Dew Point 26.0 °F
Humidity 72%
Rainfall -999.00 in
Snow Depth Not available.
UV 0 out of 12
Pollen .10 out of 12
Air Quality Not available.
Flu Activity Not available.
METAR KPVU 180251Z 00000KT 15SM SCT100 01/M02 A3003

More Conditions Fewer Conditions

10-Day Weather Forecast

Almanac

Astronomy

Dec. 17, 2014 Rise Set
Actual Time
Civil Twilight
Nautical Twilight
Astronomical Twilight
Moon
Length of Visible Light
Length of Day
Tomorrow will be .
, % of the Moon is Illuminated

Today's Extremes

State Highs State Lows

Community

WunderPhotos

Upload Photos

1,778,879 photos uploaded!

WunderBlogs® & News

Nearby

Air Quality

  Air Quality AQ Index Pollutant
Not available.

Snow Depth

Station Depth Elevation

Earthquake Activity

City Distance Mag. Time & Date
Minimum magnitude displayed is 2.5.

Coastal Water Temperatures

Place Temperature

Nearby Weather Stations